Arlington, Maryland
Current Conditions -  °F | °C
As of 3:54 AM on Wednesday 28 Jan 2015 (Local Time) from KBWI Reporting Station
Few Clouds Few Clouds  
Wind Chill: 13°   Ceiling: Unl
Heat Index: 22°   Visibility: 10mi
Dew Point:   Wind: 8mph
Humidity: 55%   Direction: 300°WNW
Pressure: 30.05"   Gusts: NA
Location:  39.3453°N, 76.6832°W
Report Text: KBWI 280854Z 30007KT 10SM FEW250 M06/M13 A3005 RMK AO2 SLP178 T10561133 51024
Loading
Personal Weather Stations






























Interactive Weather Map New forecast layout! Learn more

10-Day Weather Forecast

Advertisements
Track Severe Weather on mobile